Observations
| Time | Sensor | AQI | SAQ | Temp °C | Hum % | Pres Pa | CO μg/m³ | H₂S μg/m³ | NO μg/m³ | NO₂ μg/m³ | O₃ μg/m³ | SO₂ μg/m³ | CO₂e PPM | VOC PPM | PM1 μg/m³ | PM2.5 μg/m³ | PM4 μg/m³ | PM10 μg/m³ | TPS µm |
|---|---|---|---|---|---|---|---|---|---|---|---|---|---|---|---|---|---|---|---|
| Wednesday 12 August 2026 | |||||||||||||||||||
| 13:59 | Trim Patrick St | 2 | 33.6 | 37 | 69,471 | 0 | 9.11 | 0.42 | 12.07 | 126.14 | 20.06 | 5.43 | 11.2 | 12.32 | |||||
| 13:59 | Trim Market St | 2 | 35.6 | 31 | 66,623 | 0 | 30.07 | 0.07 | 40.81 | 74.15 | 0.92 | 1.43 | 5.43 | 5.97 | |||||
| 13:58 | Trim Patrick St | 2 | 33.6 | 37 | 69,481 | 0 | 2.75 | 0.42 | 12.1 | 121.57 | 18.45 | 5.43 | 12.01 | 13.21 | |||||
| 13:58 | Trim Market St | 2 | 35.7 | 31 | 66,617 | 0 | 24.88 | 0.05 | 48.33 | 64.33 | 0.13 | 2.85 | 5.97 | 6.57 | |||||
| 13:57 | Trim Patrick St | 2 | 33.6 | 37 | 69,487 | 0 | 1.43 | 0.41 | 12 | 82.16 | 19.34 | 4.57 | 10.41 | 11.45 | |||||
| 13:57 | Trim Market St | 2 | 35.7 | 31 | 66,610 | 0 | 23.82 | 0 | 30.91 | 71.78 | 1.19 | 1.43 | 4.9 | 5.39 | |||||
| 13:56 | Trim Patrick St | 2 | 33.7 | 36 | 69,499 | 0 | 5.22 | 0.43 | 13.14 | 80.14 | 17.38 | 5.43 | 12.05 | 13.25 | |||||
| 13:56 | Trim Market St | 2 | 35.8 | 31 | 66,623 | 0 | 23.89 | 0 | 15.32 | 111.79 | 2.12 | 2.14 | 5.99 | 6.66 | |||||
| 13:55 | Trim Patrick St | 2 | 33.6 | 37 | 69,515 | 0 | 11.35 | 0.43 | 16.54 | 107.4 | 18.87 | 3.71 | 10.42 | 11.46 | |||||
| 13:55 | Trim Market St | 2 | 35.8 | 31 | 66,643 | 0 | 27.97 | 0 | 22.39 | 106.06 | 2.01 | 1.43 | 4.37 | 4.81 | |||||
| 13:54 | Trim Patrick St | 2 | 33.6 | 36 | 69,497 | 0 | 14.07 | 0.44 | 12.48 | 108.82 | 20.14 | 3.71 | 9.66 | 10.63 | |||||
| 13:53 | Trim Patrick St | 2 | 33.7 | 36 | 69,485 | 0 | 11.2 | 0.42 | 12.59 | 117.44 | 19.92 | 4.57 | 11.24 | 12.36 | |||||
| 13:52 | Trim Patrick St | 2 | 33.7 | 36 | 69,493 | 0 | 9.07 | 0.42 | 13.43 | 114.7 | 18.6 | 4.57 | 10.47 | 11.51 | |||||
| 13:51 | Trim Market St | 2 | 36.1 | 30 | 66,659 | 0 | 25.09 | 0 | 19.61 | 99.89 | 2.45 | 1.43 | 4.92 | 5.41 | |||||
| 13:51 | Trim Patrick St | 2 | 33.7 | 36 | 69,503 | 0 | 4.9 | 0.4 | 12.22 | 118.7 | 19.11 | 5.43 | 12.04 | 13.24 | |||||
| 13:50 | Trim Patrick St | 2 | 33.7 | 36 | 69,523 | 0 | 6.86 | 0.42 | 12.15 | 113 | 19.3 | 3.71 | 9.68 | 10.65 | |||||
| 13:49 | Trim Market St | 2 | 36.3 | 30 | 66,692 | 0 | 30.4 | 0 | 18.69 | 126.67 | 3.07 | 2.14 | 4.93 | 5.43 | |||||
| 13:49 | Trim Patrick St | 2 | 33.7 | 36 | 69,515 | 0 | 13.06 | 0.41 | 13.08 | 125.49 | 20.17 | 3.71 | 9.66 | 10.63 | |||||
| 13:48 | Trim Patrick St | 2 | 33.7 | 36 | 69,503 | 0 | 12.95 | 0.42 | 12.18 | 113.85 | 20.4 | 2.86 | 8.9 | 9.79 | |||||
| 13:47 | Trim Market St | 2 | 36.5 | 30 | 66,710 | 0 | 26.65 | 0 | 21.11 | 107.59 | 2.77 | 2.14 | 5.5 | 6.05 | |||||